Share

Tahiti, French Polynesia

2:40 AM TAHT on April 23, 2014 (GMT -1000)
Faaa (NTAA) Elev 7 ft | 17.56 °S, 149.61 °W | Change Station

Current weather conditions updated 10 minutes ago

Partly Cloudy
Partly Cloudy
77 °F
Feels Like 77 °F
N
5
Wind Variable Wind from East
Sunrise 6:09 AM
Sunset 5:43 PM
Moon Last Quarter

Today is forecast to be Cooler than yesterday. Slight chance of a thunderstorm.

Pressure 29.89 in
Visibility 6.2 miles
Clouds Few 2300 ft
Dew Point 72 °F
Humidity 83%
Rainfall 0.00 in
Snow Depth Not available.
UV 0 out of 16
Pollen Not available.
Air Quality Not available.
Flu Activity Not available.
METAR NTAA 231230Z 08004KT 9999 FEW023 25/22 Q1012 NOSIG

More Conditions Fewer Conditions

Pressure 29.89 in
Visibility 6.2 miles
Clouds Few 2300 ft
Dew Point 72 °F
Humidity 83%
Rainfall 0.00 in
Snow Depth Not available.
UV 0 out of 16
Pollen Not available.
Air Quality Not available.
Flu Activity Not available.
METAR NTAA 231230Z 08004KT 9999 FEW023 25/22 Q1012 NOSIG

More Conditions Fewer Conditions

10-Day Weather Forecast

Almanac

Astronomy

Apr. 23, 2014 Rise Set
Actual Time 6:09 AM TAHT 5:43 PM TAHT
Civil Twilight 5:47 AM TAHT 6:05 PM TAHT
Nautical Twilight 5:21 AM TAHT 6:31 PM TAHT
Astronomical Twilight 4:56 AM TAHT 6:57 PM TAHT
Moon 12:56 AM TAHT 1:46 PM TAHT
Length of Visible Light 12h 18m
Length of Day
11h 34m
Tomorrow will be 0m 52s shorter.
Last Quarter, 36% of the Moon is Illuminated
Today
Last Quarter
Apr 29
New
May 6
First Quarter
May 14
Full
May 21
Last Quarter

Yesterday's Extremes

Country Highs Country Lows

Community

  • April Sunset
    April Sunset
  • Waiting..
    Waiting..
  • Sunset...
    Sunset...
  • Happy outdoor day
    Happy outdoor day
  • mystic afternoon....
    mystic afternoon....

WunderPhotos

Upload Photos

1,704,257 photos uploaded!

Nearby

Snow Depth

Not available.

Coastal Water Temperatures

Place Temperature
No Stations Reporting

Earthquake Activity

City Distance Mag. Time & Date
No recent earthquake activity has been reported nearby.
Minimum magnitude displayed is 2.5.

Nearby Weather Stations

There are no personal weather stations in this area.

What do you think?

We're not finished. Please let us know what you like, what you don't like, and what you are still missing.